Česky Dansk Deutsch English Español Suomi Français Magyar Italiano Nederlands norsk Polski Português svenska Türkçe

 

Het Weer

Biak / Mokmer (Indonesië)

22:00, 1 juli 2016 (GMT)

NWNNE
WE
SWSSE
Home            
Biak / Mokmer Serui / Yendosa Manokwari / Rendani Nabire Sarmi Enarotali Kaimana / Utarom Kokonao / Timuka Wamena / Wamena Fak-Fak / Torea Jayapura / Sentani Sorong / Jefman Tanah Merah / Tanah Merah Amahai Wewak Saumlaki Ambon / Pattimura Merauke / Mopah Koror, Palau, NWS Office Babelthuap Island, Babelthuap/Koror Airport Galela / Gamarmalamu Ternate / Babullah Namlea

Om een weerknop op uw website of weblog te plaatsen, copieer onderstaande code en plak die in uw pagina. In het eerste vakje staat HTML-code, in het tweede vakje UBB-code.


Add to Google

Details

Visibility:Greater than 10000 m, 10 km, 32800 ft, 6.2 miles
Clouds:Ein wenig bewölkt at 1800 ft, 549 m
Temperature:25°C, 77°F
Gefühlte Temperatur:26°C, 78°F
Dew-point:24°C, 75°F
Atmospheric pressure:1011 hPa, 758.3 mmHg, 29.85 inHg, 0.998 atm
Relative humidity:94.2 %
METAR:WABB 012200Z 00000KT 9999 FEW018 25/24 Q1011 NOSIG

Snelkoppelingen

Actuele weersinformatie van de hele wereld. Voeg locaties toe met het plus (+) symbool. Deze snelkoppelingen kunnen worden toegevoegd aan Google.

Lid van de Technetium groep

website free tracking
StatCounter NetStat W3C Validator

14-08-2018 12:54:16
astro.technetium.be money.technetium.be phote.technetium.be tafeltennistafel.technetium.be www.ligfiets.net